Time;durP1;ratioP1;P1;durP2;ratioP2;P2;SDS_P1;SDS_P2;PMS_P1;PMS_P2;Temp;Humidity;BMP_temperature;BMP_pressure;BME280_temperature;BME280_humidity;BME280_pressure;Samples;Min_cycle;Max_cycle;Signal;HPM_P1;HPM_P2
2023/08/29 00:02:13;;;;;;;8.90;5.63;;;;;;;;;;5074667;28;20442;-62
2023/08/29 00:04:41;;;;;;;6.73;6.03;;;;;;;;;;5074808;28;20791;-62
2023/08/29 00:07:08;;;;;;;6.23;5.73;;;;;;;;;;5074969;28;20439;-62
2023/08/29 00:09:35;;;;;;;12.13;5.53;;;;;;;;;;5074676;28;20442;-62
2023/08/29 00:12:03;;;;;;;6.63;6.03;;;;;;;;;;5074560;28;20528;-62
2023/08/29 00:14:30;;;;;;;8.70;6.10;;;;;;;;;;5074950;28;20443;-62
2023/08/29 00:16:59;;;;;;;7.40;6.20;;;;;;;;;;5074904;28;20783;-62
2023/08/29 00:19:26;;;;;;;10.53;6.40;;;;;;;;;;5074444;28;20497;-62
2023/08/29 00:21:53;;;;;;;7.60;6.53;;;;;;;;;;5074449;28;20522;-62
2023/08/29 00:24:21;;;;;;;7.83;6.27;;;;;;;;;;5074753;28;20500;-62
2023/08/29 00:26:48;;;;;;;7.90;7.10;;;;;;;;;;5074696;28;20483;-62
2023/08/29 00:29:15;;;;;;;7.87;6.37;;;;;;;;;;5074617;28;20451;-62
2023/08/29 00:31:43;;;;;;;6.67;6.03;;;;;;;;;;5074263;28;20530;-62
2023/08/29 00:34:11;;;;;;;8.40;6.70;;;;;;;;;;5074436;28;20629;-62
2023/08/29 00:36:38;;;;;;;7.27;6.67;;;;;;;;;;5074691;28;20452;-62
2023/08/29 00:39:06;;;;;;;7.30;6.67;;;;;;;;;;5074317;28;20475;-62
2023/08/29 00:41:33;;;;;;;13.57;7.53;;;;;;;;;;5074062;28;20440;-62
2023/08/29 00:44:00;;;;;;;8.00;7.20;;;;;;;;;;5073820;28;21000;-62
2023/08/29 00:46:28;;;;;;;8.07;7.37;;;;;;;;;;5074433;28;20432;-61
2023/08/29 00:48:56;;;;;;;8.23;7.53;;;;;;;;;;5074062;28;20529;-62
2023/08/29 00:51:24;;;;;;;7.67;7.03;;;;;;;;;;5073930;28;20444;-62
2023/08/29 00:53:51;;;;;;;8.87;7.13;;;;;;;;;;5073837;28;20792;-62
2023/08/29 00:56:19;;;;;;;7.73;7.00;;;;;;;;;;5074063;28;20440;-62
2023/08/29 00:58:46;;;;;;;12.87;7.60;;;;;;;;;;5073833;28;21040;-62
2023/08/29 01:01:15;;;;;;;9.70;7.90;;;;;;;;;;5074246;28;20533;-62
2023/08/29 01:03:43;;;;;;;8.60;7.70;;;;;;;;;;5073382;28;20445;-62
2023/08/29 01:06:11;;;;;;;8.63;7.70;;;;;;;;;;5073938;28;20522;-62
2023/08/29 01:08:39;;;;;;;7.43;6.83;;;;;;;;;;5073386;28;20479;-62
2023/08/29 01:11:09;;;;;;;8.33;7.50;;;;;;;;;;5073500;28;20463;-62
2023/08/29 01:13:41;;;;;;;7.93;7.30;;;;;;;;;;5073281;28;20477;-62
2023/08/29 01:16:09;;;;;;;11.43;8.27;;;;;;;;;;5073384;28;20514;-62
2023/08/29 01:18:38;;;;;;;9.90;7.60;;;;;;;;;;5073442;28;20493;-62
2023/08/29 01:21:15;;;;;;;8.60;7.37;;;;;;;;;;5073543;28;20467;-62
2023/08/29 01:23:45;;;;;;;8.27;7.47;;;;;;;;;;5073147;28;20455;-63
2023/08/29 01:26:15;;;;;;;8.87;7.67;;;;;;;;;;5074041;28;20460;-62
2023/08/29 01:28:42;;;;;;;8.03;7.33;;;;;;;;;;5073003;28;20474;-62
2023/08/29 01:31:10;;;;;;;8.87;7.97;;;;;;;;;;5073362;28;20446;-62
2023/08/29 01:33:38;;;;;;;8.97;6.63;;;;;;;;;;5072959;28;20937;-63
2023/08/29 01:36:05;;;;;;;7.97;7.20;;;;;;;;;;5073340;28;20454;-63
2023/08/29 01:38:32;;;;;;;8.80;7.90;;;;;;;;;;5073106;28;20497;-63
2023/08/29 01:41:00;;;;;;;9.00;7.97;;;;;;;;;;5072947;28;20508;-64
2023/08/29 01:43:28;;;;;;;9.60;8.70;;;;;;;;;;5073195;28;20442;-62
2023/08/29 01:45:55;;;;;;;9.37;8.47;;;;;;;;;;5072826;28;20441;-62
2023/08/29 01:48:23;;;;;;;8.77;7.97;;;;;;;;;;5072995;28;20542;-63
2023/08/29 01:50:50;;;;;;;8.40;7.60;;;;;;;;;;5073490;28;20534;-62
2023/08/29 01:53:17;;;;;;;9.40;8.40;;;;;;;;;;5072927;28;20566;-62
2023/08/29 01:55:46;;;;;;;9.80;8.80;;;;;;;;;;5072944;28;20435;-62
2023/08/29 01:58:15;;;;;;;9.87;8.80;;;;;;;;;;5072964;28;20450;-63
2023/08/29 02:00:43;;;;;;;9.00;8.10;;;;;;;;;;5072761;28;20478;-63
2023/08/29 02:03:11;;;;;;;9.47;8.47;;;;;;;;;;5072621;28;20443;-63
2023/08/29 02:05:39;;;;;;;10.37;8.83;;;;;;;;;;5072716;28;20534;-62
2023/08/29 02:08:06;;;;;;;11.87;8.27;;;;;;;;;;5073228;28;20468;-63
2023/08/29 02:10:34;;;;;;;14.70;8.63;;;;;;;;;;5072955;28;20512;-62
2023/08/29 02:13:01;;;;;;;10.57;8.93;;;;;;;;;;5072931;28;20434;-62
2023/08/29 02:15:28;;;;;;;10.13;8.50;;;;;;;;;;5072895;28;20438;-62
2023/08/29 02:17:56;;;;;;;9.57;8.67;;;;;;;;;;5079331;28;20800;-62
2023/08/29 02:20:24;;;;;;;9.47;8.53;;;;;;;;;;5079322;28;20481;-62
2023/08/29 02:22:51;;;;;;;9.83;8.63;;;;;;;;;;5079411;28;20451;-62
2023/08/29 02:25:18;;;;;;;9.63;8.63;;;;;;;;;;5079093;28;20446;-63
2023/08/29 02:27:45;;;;;;;10.47;9.17;;;;;;;;;;5079403;28;20531;-62
2023/08/29 02:30:13;;;;;;;9.57;7.90;;;;;;;;;;5079380;28;20439;-62
2023/08/29 02:32:40;;;;;;;10.37;7.60;;;;;;;;;;5078937;28;20533;-62
2023/08/29 02:35:10;;;;;;;9.33;7.90;;;;;;;;;;5079287;28;20501;-63
2023/08/29 02:37:37;;;;;;;12.83;8.27;;;;;;;;;;5079256;28;20801;-62
2023/08/29 02:40:06;;;;;;;10.00;8.93;;;;;;;;;;5079296;28;20832;-62
2023/08/29 02:42:33;;;;;;;9.13;8.10;;;;;;;;;;5079264;28;20459;-62
2023/08/29 02:45:00;;;;;;;9.50;8.57;;;;;;;;;;5079202;28;20434;-62
2023/08/29 02:47:27;;;;;;;9.93;9.07;;;;;;;;;;5078891;28;20536;-62
2023/08/29 02:49:55;;;;;;;9.60;8.20;;;;;;;;;;5079441;28;20454;-62
2023/08/29 02:52:23;;;;;;;10.40;9.40;;;;;;;;;;5079194;28;20450;-63
2023/08/29 02:54:50;;;;;;;9.77;8.87;;;;;;;;;;5078805;28;20479;-63
2023/08/29 02:57:18;;;;;;;11.70;8.27;;;;;;;;;;5079265;28;20823;-63
2023/08/29 02:59:45;;;;;;;8.17;7.30;;;;;;;;;;5079165;28;20474;-63
2023/08/29 03:02:12;;;;;;;10.93;7.70;;;;;;;;;;5078758;28;20535;-63
2023/08/29 03:04:40;;;;;;;9.33;8.50;;;;;;;;;;5079454;28;20881;-63
2023/08/29 03:07:08;;;;;;;9.80;8.80;;;;;;;;;;5079281;28;20829;-63
2023/08/29 03:09:35;;;;;;;9.50;8.70;;;;;;;;;;5079263;28;20805;-62
2023/08/29 03:12:03;;;;;;;9.10;8.30;;;;;;;;;;5078795;28;20421;-63
2023/08/29 03:14:30;;;;;;;9.57;8.77;;;;;;;;;;5078593;28;20445;-63
2023/08/29 03:16:58;;;;;;;11.30;9.47;;;;;;;;;;5079360;28;20777;-63
2023/08/29 03:19:25;;;;;;;10.37;9.20;;;;;;;;;;5078519;28;20474;-63
2023/08/29 03:21:52;;;;;;;10.53;9.53;;;;;;;;;;5079464;28;20455;-63
2023/08/29 03:24:19;;;;;;;14.33;9.70;;;;;;;;;;5078892;28;20530;-63
2023/08/29 03:26:48;;;;;;;9.97;9.03;;;;;;;;;;5078902;28;20509;-63
2023/08/29 03:29:15;;;;;;;11.70;10.50;;;;;;;;;;5074020;28;20447;-63
2023/08/29 03:31:43;;;;;;;10.37;9.40;;;;;;;;;;5075686;28;20611;-62
2023/08/29 03:34:10;;;;;;;9.23;8.33;;;;;;;;;;5075588;28;20509;-63
2023/08/29 03:36:38;;;;;;;10.67;9.20;;;;;;;;;;5075536;28;20446;-63
2023/08/29 03:39:06;;;;;;;13.50;9.87;;;;;;;;;;5075494;28;20478;-63
2023/08/29 03:41:33;;;;;;;9.67;8.77;;;;;;;;;;5075118;28;20482;-62
2023/08/29 03:44:01;;;;;;;15.67;9.77;;;;;;;;;;5076048;28;20793;-62
2023/08/29 03:46:28;;;;;;;9.93;8.93;;;;;;;;;;5075354;28;20432;-62
2023/08/29 03:48:56;;;;;;;10.70;9.60;;;;;;;;;;5075503;28;20533;-62
2023/08/29 03:51:23;;;;;;;10.07;9.17;;;;;;;;;;5074985;28;20443;-62
2023/08/29 03:53:50;;;;;;;11.53;10.43;;;;;;;;;;5075530;28;20566;-62
2023/08/29 03:56:18;;;;;;;11.50;10.40;;;;;;;;;;5074911;28;20475;-62
2023/08/29 03:58:46;;;;;;;10.83;9.80;;;;;;;;;;5088986;28;20446;-62
2023/08/29 04:01:15;;;;;;;11.03;9.47;;;;;;;;;;5094932;28;21000;-62
2023/08/29 04:03:42;;;;;;;10.90;9.90;;;;;;;;;;5095530;28;20440;-62
2023/08/29 04:06:09;;;;;;;11.70;10.60;;;;;;;;;;5094880;28;20518;-62
2023/08/29 04:08:37;;;;;;;12.00;10.80;;;;;;;;;;5094947;28;20511;-63
2023/08/29 04:11:04;;;;;;;11.77;10.33;;;;;;;;;;5095041;28;20448;-62
2023/08/29 04:13:31;;;;;;;11.20;10.13;;;;;;;;;;5095185;28;20453;-62
2023/08/29 04:16:02;;;;;;;12.23;11.03;;;;;;;;;;5095235;28;20818;-62
2023/08/29 04:18:31;;;;;;;14.00;10.90;;;;;;;;;;5095320;28;20426;-62
2023/08/29 04:20:58;;;;;;;11.60;10.53;;;;;;;;;;5094419;28;20481;-62
2023/08/29 04:23:25;;;;;;;13.40;12.10;;;;;;;;;;5095144;28;20514;-62
2023/08/29 04:25:58;;;;;;;12.07;10.93;;;;;;;;;;5094797;28;20528;-62
2023/08/29 04:28:25;;;;;;;12.80;11.60;;;;;;;;;;5094776;28;20438;-62
2023/08/29 04:30:52;;;;;;;13.87;11.80;;;;;;;;;;5094549;28;20749;-62
2023/08/29 04:33:19;;;;;;;14.00;11.70;;;;;;;;;;5094716;28;20445;-62
2023/08/29 04:35:50;;;;;;;16.60;12.10;;;;;;;;;;5094260;28;20480;-62
2023/08/29 04:38:17;;;;;;;12.97;11.67;;;;;;;;;;5094839;28;20779;-62
2023/08/29 04:40:44;;;;;;;17.97;11.23;;;;;;;;;;5093955;28;20487;-62
2023/08/29 04:43:11;;;;;;;15.20;13.40;;;;;;;;;;5094791;28;20441;-62
2023/08/29 04:45:42;;;;;;;13.60;12.30;;;;;;;;;;5094087;28;20442;-62
2023/08/29 04:48:09;;;;;;;14.60;13.10;;;;;;;;;;5094867;28;20425;-62
2023/08/29 04:50:37;;;;;;;15.63;11.90;;;;;;;;;;5094529;28;20573;-62
2023/08/29 04:53:06;;;;;;;18.30;11.80;;;;;;;;;;5093844;28;21004;-62
2023/08/29 04:55:33;;;;;;;14.00;12.10;;;;;;;;;;5094389;28;20469;-65
2023/08/29 04:58:01;;;;;;;12.33;11.23;;;;;;;;;;5093328;28;20988;-61
2023/08/29 05:00:29;;;;;;;13.90;11.90;;;;;;;;;;5093534;28;20569;-62
2023/08/29 05:02:56;;;;;;;14.37;12.87;;;;;;;;;;5093939;28;20434;-61
2023/08/29 05:05:23;;;;;;;12.83;11.53;;;;;;;;;;5094320;28;20854;-61
2023/08/29 05:07:51;;;;;;;15.63;13.23;;;;;;;;;;5093766;28;20765;-61
2023/08/29 05:10:19;;;;;;;22.40;13.67;;;;;;;;;;5093698;28;20467;-61
2023/08/29 05:12:46;;;;;;;15.17;13.57;;;;;;;;;;5093444;28;20962;-61
2023/08/29 05:15:14;;;;;;;15.80;12.40;;;;;;;;;;5094038;28;20472;-62
2023/08/29 05:17:41;;;;;;;14.73;13.33;;;;;;;;;;5093799;28;20458;-61
2023/08/29 05:20:09;;;;;;;13.67;12.13;;;;;;;;;;5093771;28;20592;-61
2023/08/29 05:22:37;;;;;;;16.10;13.93;;;;;;;;;;5093528;28;20446;-61
2023/08/29 05:25:04;;;;;;;13.10;11.80;;;;;;;;;;5093808;28;20430;-62
2023/08/29 05:27:33;;;;;;;15.37;13.30;;;;;;;;;;5093404;28;20449;-62
2023/08/29 05:30:00;;;;;;;15.33;13.10;;;;;;;;;;5093626;28;20528;-62
2023/08/29 05:32:28;;;;;;;14.87;13.27;;;;;;;;;;5093261;28;20445;-62
2023/08/29 05:34:55;;;;;;;17.90;12.33;;;;;;;;;;5093382;28;20961;-62
2023/08/29 05:37:22;;;;;;;13.93;12.10;;;;;;;;;;5093621;28;20809;-62
2023/08/29 05:39:49;;;;;;;15.70;12.40;;;;;;;;;;5093504;28;20782;-63
2023/08/29 05:42:16;;;;;;;14.23;12.93;;;;;;;;;;5093368;28;20458;-62
2023/08/29 05:44:45;;;;;;;16.10;13.70;;;;;;;;;;5094336;28;20443;-63
2023/08/29 05:47:12;;;;;;;17.77;12.47;;;;;;;;;;5093812;28;20520;-62
2023/08/29 05:49:39;;;;;;;17.20;12.73;;;;;;;;;;5093222;28;20545;-62
2023/08/29 05:52:07;;;;;;;16.40;12.97;;;;;;;;;;5092255;28;20533;-62
2023/08/29 05:54:36;;;;;;;12.83;11.63;;;;;;;;;;5092880;28;20471;-62
2023/08/29 05:57:03;;;;;;;15.20;13.60;;;;;;;;;;5093246;28;20532;-62
2023/08/29 05:59:31;;;;;;;18.03;12.83;;;;;;;;;;5092847;28;20437;-62
2023/08/29 06:02:00;;;;;;;14.57;12.73;;;;;;;;;;5092758;28;20447;-62
2023/08/29 06:04:27;;;;;;;15.57;14.07;;;;;;;;;;5092890;28;20446;-62
2023/08/29 06:06:54;;;;;;;17.07;11.40;;;;;;;;;;5093193;28;20437;-62
2023/08/29 06:09:22;;;;;;;14.67;13.20;;;;;;;;;;5093379;28;20487;-62
2023/08/29 06:11:49;;;;;;;13.87;12.57;;;;;;;;;;5092845;28;20524;-62
2023/08/29 06:14:16;;;;;;;14.53;12.60;;;;;;;;;;5093045;28;20442;-62
2023/08/29 06:16:43;;;;;;;14.07;12.53;;;;;;;;;;5092701;28;20524;-62
2023/08/29 06:19:12;;;;;;;13.83;12.53;;;;;;;;;;5093076;28;20450;-62
2023/08/29 06:21:39;;;;;;;12.93;11.57;;;;;;;;;;5093192;28;20485;-63
2023/08/29 06:24:07;;;;;;;15.70;11.87;;;;;;;;;;5093263;28;20439;-62
2023/08/29 06:26:35;;;;;;;13.87;12.03;;;;;;;;;;5092676;28;20444;-62
2023/08/29 06:29:02;;;;;;;13.50;12.20;;;;;;;;;;5092600;28;20450;-63
2023/08/29 06:31:29;;;;;;;13.67;12.37;;;;;;;;;;5092652;28;20527;-62
2023/08/29 06:33:56;;;;;;;14.37;12.43;;;;;;;;;;5092865;28;20466;-62
2023/08/29 06:36:25;;;;;;;13.30;12.00;;;;;;;;;;5093214;28;20438;-62
2023/08/29 06:38:53;;;;;;;14.50;12.27;;;;;;;;;;5092560;28;20820;-62
2023/08/29 06:41:20;;;;;;;13.63;12.17;;;;;;;;;;5092886;28;20531;-62
2023/08/29 06:43:47;;;;;;;14.40;12.53;;;;;;;;;;5092528;28;20458;-63
2023/08/29 06:46:15;;;;;;;14.57;13.27;;;;;;;;;;5092758;28;20533;-62
2023/08/29 06:48:42;;;;;;;15.23;13.40;;;;;;;;;;5092621;28;20452;-63
2023/08/29 06:51:09;;;;;;;13.87;12.33;;;;;;;;;;5092491;28;20482;-62
2023/08/29 06:53:38;;;;;;;14.97;11.50;;;;;;;;;;5092294;28;20503;-62
2023/08/29 06:56:05;;;;;;;15.67;12.90;;;;;;;;;;5092456;28;20522;-63
2023/08/29 06:58:32;;;;;;;13.63;12.10;;;;;;;;;;5092214;28;20453;-62
2023/08/29 07:01:00;;;;;;;13.80;12.47;;;;;;;;;;5092668;28;20478;-62
2023/08/29 07:03:27;;;;;;;16.00;13.50;;;;;;;;;;5095487;28;20472;-62
2023/08/29 07:05:55;;;;;;;17.70;13.53;;;;;;;;;;5096099;28;20435;-62
2023/08/29 07:08:22;;;;;;;14.87;12.67;;;;;;;;;;5096042;28;20450;-62
2023/08/29 07:10:51;;;;;;;14.33;12.80;;;;;;;;;;5096378;28;20529;-62
2023/08/29 07:13:18;;;;;;;13.20;11.90;;;;;;;;;;5096535;28;20524;-62
2023/08/29 07:15:45;;;;;;;15.40;13.80;;;;;;;;;;5096030;28;20449;-62
2023/08/29 07:18:13;;;;;;;14.70;12.20;;;;;;;;;;5096150;28;20464;-63
2023/08/29 07:20:40;;;;;;;15.30;13.70;;;;;;;;;;5096163;28;20937;-63
2023/08/29 07:23:07;;;;;;;15.07;13.30;;;;;;;;;;5095844;28;20538;-63
2023/08/29 07:25:38;;;;;;;13.73;12.43;;;;;;;;;;5096138;28;20542;-62
2023/08/29 07:28:07;;;;;;;13.57;12.27;;;;;;;;;;5095749;28;20442;-62
2023/08/29 07:30:34;;;;;;;15.13;12.17;;;;;;;;;;5096320;28;20450;-62
2023/08/29 07:33:03;;;;;;;14.17;12.80;;;;;;;;;;5095665;28;20532;-62
2023/08/29 07:35:31;;;;;;;12.73;11.37;;;;;;;;;;5095882;28;20927;-62
2023/08/29 07:37:58;;;;;;;15.73;11.63;;;;;;;;;;5095809;28;20523;-62
2023/08/29 07:40:25;;;;;;;13.57;12.17;;;;;;;;;;5095430;28;21060;-62
2023/08/29 07:42:52;;;;;;;14.40;12.33;;;;;;;;;;5095370;28;20514;-63
2023/08/29 07:45:21;;;;;;;16.07;12.77;;;;;;;;;;5095553;28;20468;-62
2023/08/29 07:47:48;;;;;;;14.23;12.57;;;;;;;;;;5095671;28;20506;-62
2023/08/29 07:50:15;;;;;;;14.30;12.10;;;;;;;;;;5095454;28;20528;-62
2023/08/29 07:52:43;;;;;;;15.43;12.40;;;;;;;;;;5095649;28;20446;-63
2023/08/29 07:55:10;;;;;;;12.50;11.23;;;;;;;;;;5095571;28;20526;-62
2023/08/29 07:57:37;;;;;;;13.77;12.37;;;;;;;;;;5095203;28;20450;-62
2023/08/29 08:00:06;;;;;;;16.67;12.70;;;;;;;;;;5095062;28;20531;-62
2023/08/29 08:02:38;;;;;;;19.53;11.43;;;;;;;;;;5095140;28;20502;-62
2023/08/29 08:05:05;;;;;;;13.60;11.83;;;;;;;;;;5095040;28;20517;-62
2023/08/29 08:07:33;;;;;;;12.07;10.97;;;;;;;;;;5095374;28;20796;-62
2023/08/29 08:10:00;;;;;;;14.20;12.80;;;;;;;;;;5095327;28;20442;-62
2023/08/29 08:12:27;;;;;;;14.07;12.37;;;;;;;;;;5095289;28;20533;-62
2023/08/29 08:14:54;;;;;;;11.73;10.60;;;;;;;;;;5094605;28;20779;-62
2023/08/29 08:17:21;;;;;;;13.47;10.30;;;;;;;;;;5095205;28;20532;-62
2023/08/29 08:19:50;;;;;;;11.30;9.83;;;;;;;;;;5095113;28;20476;-62
2023/08/29 08:22:17;;;;;;;11.20;10.10;;;;;;;;;;5094826;28;20546;-63
2023/08/29 08:24:44;;;;;;;13.13;11.50;;;;;;;;;;5094117;28;20443;-62
2023/08/29 08:27:12;;;;;;;11.93;10.73;;;;;;;;;;5094808;28;20534;-62
2023/08/29 08:29:39;;;;;;;16.30;10.47;;;;;;;;;;5095137;28;20618;-63
2023/08/29 08:32:07;;;;;;;12.93;10.60;;;;;;;;;;5094628;28;20484;-62
2023/08/29 08:34:34;;;;;;;14.03;10.40;;;;;;;;;;5094840;28;20529;-63
2023/08/29 08:37:02;;;;;;;14.70;10.70;;;;;;;;;;5094851;28;20438;-63
2023/08/29 08:39:32;;;;;;;10.73;9.83;;;;;;;;;;5094431;28;20953;-62
2023/08/29 08:41:59;;;;;;;14.47;10.97;;;;;;;;;;5094365;28;20472;-62
2023/08/29 08:44:26;;;;;;;16.93;8.87;;;;;;;;;;5094314;28;20540;-62
2023/08/29 08:46:54;;;;;;;9.43;8.50;;;;;;;;;;5094308;28;20438;-62
2023/08/29 08:49:21;;;;;;;11.07;8.70;;;;;;;;;;5094145;28;20526;-63
2023/08/29 08:51:49;;;;;;;7.30;6.60;;;;;;;;;;5094449;28;20452;-63
2023/08/29 08:54:17;;;;;;;8.73;6.03;;;;;;;;;;5094444;28;20472;-62
2023/08/29 08:56:44;;;;;;;7.47;4.33;;;;;;;;;;5094456;28;20469;-62
2023/08/29 08:59:12;;;;;;;7.80;5.97;;;;;;;;;;5094297;28;20526;-63
2023/08/29 09:01:39;;;;;;;7.90;5.87;;;;;;;;;;5094775;28;20484;-62
2023/08/29 09:04:07;;;;;;;5.70;5.13;;;;;;;;;;5093892;28;20452;-62
2023/08/29 09:06:34;;;;;;;5.40;4.90;;;;;;;;;;5093917;28;20443;-62
2023/08/29 09:09:16;;;;;;;8.80;5.33;;;;;;;;;;5093802;28;20537;-63
2023/08/29 09:11:44;;;;;;;9.67;5.57;;;;;;;;;;5093913;28;20446;-64
2023/08/29 09:14:11;;;;;;;6.00;5.40;;;;;;;;;;5093705;28;20492;-63
2023/08/29 09:16:39;;;;;;;4.97;4.57;;;;;;;;;;5093869;28;20526;-63
2023/08/29 09:19:06;;;;;;;5.17;4.40;;;;;;;;;;5093648;28;20439;-63
2023/08/29 09:21:36;;;;;;;7.40;4.00;;;;;;;;;;5093858;28;20467;-62
2023/08/29 09:24:04;;;;;;;3.93;3.27;;;;;;;;;;5093439;28;20439;-63
2023/08/29 09:26:32;;;;;;;3.20;2.60;;;;;;;;;;5093132;28;20436;-62
2023/08/29 09:29:00;;;;;;;7.27;3.60;;;;;;;;;;5093547;28;20440;-62
2023/08/29 09:31:30;;;;;;;7.07;2.60;;;;;;;;;;5093442;28;20928;-62
2023/08/29 09:33:57;;;;;;;4.20;3.80;;;;;;;;;;5093776;28;20447;-62
2023/08/29 09:36:24;;;;;;;5.20;3.17;;;;;;;;;;5093686;28;20788;-62
2023/08/29 09:38:52;;;;;;;3.73;3.20;;;;;;;;;;5093636;28;20439;-63
2023/08/29 09:41:19;;;;;;;4.20;3.40;;;;;;;;;;5093148;28;20488;-63
2023/08/29 09:43:49;;;;;;;3.40;3.10;;;;;;;;;;5093637;28;20438;-62
2023/08/29 09:46:23;;;;;;;3.17;2.97;;;;;;;;;;5093543;28;20451;-62
2023/08/29 09:48:56;;;;;;;6.80;3.90;;;;;;;;;;5093599;28;20466;-62
2023/08/29 09:51:24;;;;;;;4.70;3.07;;;;;;;;;;5093216;28;20936;-62
2023/08/29 09:53:52;;;;;;;2.97;2.70;;;;;;;;;;5093498;28;20476;-62
2023/08/29 09:56:20;;;;;;;6.43;4.10;;;;;;;;;;5093003;28;20454;-63
2023/08/29 09:58:49;;;;;;;3.77;3.47;;;;;;;;;;5093304;28;20518;-63
2023/08/29 10:01:17;;;;;;;5.93;3.97;;;;;;;;;;5093275;28;20572;-62
2023/08/29 10:03:47;;;;;;;4.03;3.53;;;;;;;;;;5092983;28;20822;-62
2023/08/29 10:06:16;;;;;;;3.93;3.63;;;;;;;;;;5093555;28;20844;-63
2023/08/29 10:08:46;;;;;;;4.43;4.03;;;;;;;;;;5093204;28;20515;-63
2023/08/29 10:11:13;;;;;;;4.50;3.30;;;;;;;;;;5093343;28;20459;-62
2023/08/29 10:13:41;;;;;;;4.57;3.43;;;;;;;;;;5093214;28;20540;-62
2023/08/29 10:16:08;;;;;;;5.33;4.30;;;;;;;;;;5093190;28;20470;-63
2023/08/29 10:18:36;;;;;;;4.87;3.53;;;;;;;;;;5092871;28;20943;-62
2023/08/29 10:21:05;;;;;;;6.93;3.70;;;;;;;;;;5092997;28;20919;-62
2023/08/29 10:23:33;;;;;;;6.43;4.20;;;;;;;;;;5093540;28;20906;-62
2023/08/29 10:26:01;;;;;;;4.93;3.63;;;;;;;;;;5092650;28;20537;-63
2023/08/29 10:28:29;;;;;;;5.20;2.93;;;;;;;;;;5093202;28;20444;-63
2023/08/29 10:31:01;;;;;;;14.13;3.60;;;;;;;;;;5092569;28;20438;-62
2023/08/29 10:33:28;;;;;;;3.10;2.80;;;;;;;;;;5092783;28;20435;-62
2023/08/29 10:35:55;;;;;;;4.17;3.87;;;;;;;;;;5093107;28;20526;-62
2023/08/29 10:38:28;;;;;;;3.00;2.70;;;;;;;;;;5096045;28;20526;-63
2023/08/29 10:41:03;;;;;;;4.40;3.13;;;;;;;;;;5097083;28;20427;-63
2023/08/29 10:43:30;;;;;;;4.40;3.53;;;;;;;;;;5096964;28;20898;-62
2023/08/29 10:45:59;;;;;;;3.43;2.30;;;;;;;;;;5097285;28;20446;-63
2023/08/29 10:48:41;;;;;;;3.03;2.80;;;;;;;;;;5097433;28;20469;-62
2023/08/29 10:51:12;;;;;;;3.73;3.33;;;;;;;;;;5096446;28;20446;-62
2023/08/29 10:53:43;;;;;;;6.70;2.57;;;;;;;;;;5096486;28;20473;-62
2023/08/29 10:56:10;;;;;;;2.13;2.00;;;;;;;;;;5096854;28;20424;-63
2023/08/29 10:58:38;;;;;;;2.07;1.97;;;;;;;;;;5096822;28;20617;-63
2023/08/29 11:01:06;;;;;;;3.17;1.97;;;;;;;;;;5096511;28;20856;-62
2023/08/29 11:03:51;;;;;;;1.37;1.27;;;;;;;;;;5096756;28;20878;-62
2023/08/29 11:06:18;;;;;;;3.50;1.60;;;;;;;;;;5096235;28;20999;-62
2023/08/29 11:08:47;;;;;;;1.90;1.80;;;;;;;;;;5096179;28;20518;-63
2023/08/29 11:11:14;;;;;;;2.57;1.83;;;;;;;;;;5096401;28;20525;-62
2023/08/29 11:13:55;;;;;;;3.10;1.57;;;;;;;;;;5096653;28;20846;-63
2023/08/29 11:16:22;;;;;;;1.73;1.60;;;;;;;;;;5096486;28;20892;-62
2023/08/29 11:18:49;;;;;;;6.30;1.70;;;;;;;;;;5096684;28;20870;-62
2023/08/29 11:21:17;;;;;;;3.60;1.70;;;;;;;;;;5096137;28;20527;-62
2023/08/29 11:23:45;;;;;;;2.07;1.80;;;;;;;;;;5096045;28;20451;-63
2023/08/29 11:26:14;;;;;;;2.10;1.80;;;;;;;;;;5095838;28;20439;-63
2023/08/29 11:28:42;;;;;;;2.47;1.90;;;;;;;;;;5096178;28;20442;-62
2023/08/29 11:31:10;;;;;;;2.40;2.20;;;;;;;;;;5095969;28;20431;-62
2023/08/29 11:33:38;;;;;;;2.23;1.80;;;;;;;;;;5096017;28;20493;-62
2023/08/29 11:36:06;;;;;;;4.20;2.00;;;;;;;;;;5095529;28;20481;-67
2023/08/29 11:38:33;;;;;;;2.20;2.00;;;;;;;;;;5095964;28;20438;-64
2023/08/29 11:41:02;;;;;;;4.50;1.90;;;;;;;;;;5095815;28;20790;-63
2023/08/29 11:43:32;;;;;;;3.00;2.00;;;;;;;;;;5095608;28;20434;-62
2023/08/29 11:46:01;;;;;;;3.63;3.20;;;;;;;;;;5095279;28;20443;-62
2023/08/29 11:48:29;;;;;;;5.10;3.00;;;;;;;;;;5095096;28;20471;-63
2023/08/29 11:50:57;;;;;;;4.07;2.93;;;;;;;;;;5095461;28;20431;-63
2023/08/29 11:53:29;;;;;;;3.50;3.20;;;;;;;;;;5095609;28;20510;-63
2023/08/29 11:55:56;;;;;;;3.10;2.80;;;;;;;;;;5081934;28;20442;-62
2023/08/29 11:58:25;;;;;;;3.03;2.73;;;;;;;;;;5094437;28;20443;-62
2023/08/29 12:00:55;;;;;;;3.40;2.30;;;;;;;;;;5095290;28;20790;-62
2023/08/29 12:03:23;;;;;;;2.93;2.63;;;;;;;;;;5094964;28;20482;-62
2023/08/29 12:05:50;;;;;;;3.10;2.80;;;;;;;;;;5095247;28;20465;-62
2023/08/29 12:08:18;;;;;;;4.63;2.60;;;;;;;;;;5095340;28;20508;-62
2023/08/29 12:10:52;;;;;;;2.57;2.10;;;;;;;;;;5095247;28;20872;-62
2023/08/29 12:13:19;;;;;;;2.90;2.60;;;;;;;;;;5094909;28;20432;-62
2023/08/29 12:15:46;;;;;;;2.67;2.47;;;;;;;;;;5094839;28;20946;-62
2023/08/29 12:18:24;;;;;;;2.13;1.97;;;;;;;;;;5094755;28;20436;-62
2023/08/29 12:20:52;;;;;;;3.27;2.10;;;;;;;;;;5095172;28;20471;-62
2023/08/29 12:23:27;;;;;;;2.60;2.17;;;;;;;;;;5094955;28;20574;-62
2023/08/29 12:25:56;;;;;;;4.97;2.13;;;;;;;;;;5094848;28;20453;-63
2023/08/29 12:28:24;;;;;;;1.93;1.83;;;;;;;;;;5094854;28;20468;-62
2023/08/29 12:30:52;;;;;;;3.30;2.07;;;;;;;;;;5094582;28;20446;-62
2023/08/29 12:33:20;;;;;;;2.20;2.00;;;;;;;;;;5094710;28;20448;-62
2023/08/29 12:35:49;;;;;;;1.80;1.70;;;;;;;;;;5094820;28;20435;-62
2023/08/29 12:38:16;;;;;;;4.87;1.97;;;;;;;;;;5094479;28;20482;-62
2023/08/29 12:40:45;;;;;;;1.50;1.40;;;;;;;;;;5094818;28;20533;-62
2023/08/29 12:43:12;;;;;;;3.03;1.73;;;;;;;;;;5094759;28;20471;-62
2023/08/29 12:45:40;;;;;;;2.30;1.50;;;;;;;;;;5094177;28;20436;-62
2023/08/29 12:48:09;;;;;;;2.37;1.60;;;;;;;;;;5094054;28;20804;-62
2023/08/29 12:50:36;;;;;;;2.17;1.60;;;;;;;;;;5094438;28;20439;-62
2023/08/29 12:53:04;;;;;;;2.60;1.70;;;;;;;;;;5094129;28;20566;-62
2023/08/29 12:55:32;;;;;;;1.67;1.40;;;;;;;;;;5094680;28;20783;-62
2023/08/29 12:58:00;;;;;;;1.83;1.70;;;;;;;;;;5094189;28;20463;-62
2023/08/29 13:00:27;;;;;;;2.57;1.80;;;;;;;;;;5094123;28;20443;-62
2023/08/29 13:02:54;;;;;;;2.97;1.93;;;;;;;;;;5094171;28;20472;-62
2023/08/29 13:05:21;;;;;;;2.57;1.97;;;;;;;;;;5093891;28;20526;-62
2023/08/29 13:07:48;;;;;;;3.00;1.70;;;;;;;;;;5094040;28;20516;-62
2023/08/29 13:10:18;;;;;;;2.17;2.03;;;;;;;;;;5094555;28;20471;-62
2023/08/29 13:12:45;;;;;;;3.10;1.80;;;;;;;;;;5093979;28;20529;-62
2023/08/29 13:15:15;;;;;;;3.37;2.10;;;;;;;;;;5093647;28;20936;-62
2023/08/29 13:17:43;;;;;;;3.33;1.80;;;;;;;;;;5093593;28;20893;-62
2023/08/29 13:20:10;;;;;;;1.80;1.70;;;;;;;;;;5093410;28;20446;-62
2023/08/29 13:22:38;;;;;;;1.60;1.40;;;;;;;;;;5093996;28;20578;-62
2023/08/29 13:25:05;;;;;;;1.50;1.40;;;;;;;;;;5093880;28;20840;-62
2023/08/29 13:27:34;;;;;;;2.60;1.30;;;;;;;;;;5093418;28;20523;-62
2023/08/29 13:30:04;;;;;;;1.20;1.10;;;;;;;;;;5093911;28;20448;-62
2023/08/29 13:32:34;;;;;;;1.40;1.30;;;;;;;;;;5093324;28;20436;-62
2023/08/29 13:35:01;;;;;;;1.43;1.20;;;;;;;;;;5093911;28;20443;-61
2023/08/29 13:37:28;;;;;;;4.50;1.40;;;;;;;;;;5093530;28;20534;-61
2023/08/29 13:39:56;;;;;;;1.47;1.37;;;;;;;;;;5093164;28;20534;-62
2023/08/29 13:42:23;;;;;;;1.50;1.40;;;;;;;;;;5093495;28;20467;-62
2023/08/29 13:44:53;;;;;;;1.50;1.40;;;;;;;;;;5093484;28;20524;-62
2023/08/29 13:47:22;;;;;;;1.63;1.53;;;;;;;;;;5093053;28;20456;-62
2023/08/29 13:49:49;;;;;;;1.50;1.40;;;;;;;;;;5093456;28;20441;-66
2023/08/29 13:52:16;;;;;;;4.00;1.60;;;;;;;;;;5093024;28;20473;-63
2023/08/29 13:54:43;;;;;;;1.43;1.23;;;;;;;;;;5092960;28;20486;-65
2023/08/29 13:57:10;;;;;;;1.87;1.37;;;;;;;;;;5093437;28;20445;-65
2023/08/29 13:59:39;;;;;;;3.17;1.80;;;;;;;;;;5092992;28;20436;-62
2023/08/29 14:02:08;;;;;;;1.70;1.60;;;;;;;;;;5092841;28;20444;-61
2023/08/29 14:04:36;;;;;;;3.43;1.50;;;;;;;;;;5093252;28;20512;-64
2023/08/29 14:07:03;;;;;;;1.50;1.40;;;;;;;;;;5092918;28;20484;-61
2023/08/29 14:09:30;;;;;;;1.60;1.50;;;;;;;;;;5093249;28;20862;-61
2023/08/29 14:11:57;;;;;;;1.53;1.43;;;;;;;;;;5092623;28;20447;-60
2023/08/29 14:14:25;;;;;;;3.57;1.67;;;;;;;;;;5092731;28;21032;-61
2023/08/29 14:16:52;;;;;;;3.37;1.60;;;;;;;;;;5092871;28;20445;-61
2023/08/29 14:19:21;;;;;;;2.10;1.73;;;;;;;;;;5092733;28;21007;-62
2023/08/29 14:21:49;;;;;;;2.73;2.10;;;;;;;;;;5092775;28;20493;-62
2023/08/29 14:24:16;;;;;;;2.30;2.10;;;;;;;;;;5092800;28;20568;-62
2023/08/29 14:26:45;;;;;;;4.60;2.17;;;;;;;;;;5092482;28;20525;-61
2023/08/29 14:29:13;;;;;;;2.43;2.00;;;;;;;;;;5092897;28;20506;-61
2023/08/29 14:31:40;;;;;;;3.63;2.00;;;;;;;;;;5093006;28;20439;-61
2023/08/29 14:34:07;;;;;;;2.63;1.70;;;;;;;;;;5092891;28;20537;-61
2023/08/29 14:36:36;;;;;;;2.37;2.00;;;;;;;;;;5092699;28;20474;-61
2023/08/29 14:39:03;;;;;;;1.80;1.70;;;;;;;;;;5092824;28;20449;-61